createdAt,value
2022-08-08T00:00:55.169Z,1019.01
2022-08-08T00:01:08.688Z,1019.01
2022-08-08T00:02:03.134Z,1019.02
2022-08-08T00:02:38.733Z,1019.03
2022-08-08T00:03:38.723Z,1019.03
2022-08-08T00:04:38.760Z,1019.04
2022-08-08T00:05:43.413Z,1019.04
2022-08-08T00:06:38.694Z,1019.04
2022-08-08T00:07:38.681Z,1019.04
2022-08-08T00:08:38.647Z,1019.04
2022-08-08T00:09:38.657Z,1019.06
2022-08-08T00:10:38.658Z,1019.06
2022-08-08T00:12:02.822Z,1019.07
2022-08-08T00:12:38.621Z,1019.09
2022-08-08T00:14:16.522Z,1019.08
2022-08-08T00:15:00.126Z,1019.08
2022-08-08T00:15:57.131Z,1019.09
2022-08-08T00:16:38.580Z,1019.08
2022-08-08T00:18:02.777Z,1019.07
2022-08-08T00:18:38.566Z,1019.06
2022-08-08T00:19:38.551Z,1019.06
2022-08-08T00:20:38.544Z,1019.05
2022-08-08T00:21:39.319Z,1019.04
2022-08-08T00:22:39.783Z,1019.04
2022-08-08T00:23:42.734Z,1019.03
2022-08-08T00:24:38.491Z,1019.01
2022-08-08T00:25:44.914Z,1019.02
2022-08-08T00:26:38.491Z,1019.01
2022-08-08T00:27:38.497Z,1019.02
2022-08-08T00:28:38.499Z,1019.02
2022-08-08T00:29:45.357Z,1019.04
2022-08-08T00:30:45.051Z,1019.06
2022-08-08T00:32:20.909Z,1019.07
2022-08-08T00:32:39.647Z,1019.09
2022-08-08T00:34:18.357Z,1019.10
2022-08-08T00:34:38.397Z,1019.11
2022-08-08T00:35:38.402Z,1019.12
2022-08-08T00:36:38.371Z,1019.13
2022-08-08T00:37:47.764Z,1019.14
2022-08-08T00:38:51.403Z,1019.15
2022-08-08T00:41:10.210Z,1019.16
2022-08-08T00:41:18.365Z,1019.16
2022-08-08T00:41:54.992Z,1019.18
2022-08-08T00:42:41.757Z,1019.17
2022-08-08T00:43:41.050Z,1019.16
2022-08-08T00:44:38.295Z,1019.16
2022-08-08T00:45:38.289Z,1019.15
2022-08-08T00:46:57.398Z,1019.14
2022-08-08T00:48:01.941Z,1019.12
2022-08-08T00:48:38.259Z,1019.11
2022-08-08T00:49:38.242Z,1019.10
2022-08-08T00:50:40.705Z,1019.10
2022-08-08T00:51:38.993Z,1019.09
2022-08-08T00:52:40.111Z,1019.08
2022-08-08T00:53:43.787Z,1019.09
2022-08-08T00:54:38.181Z,1019.08
2022-08-08T00:55:53.893Z,1019.08
2022-08-08T00:56:38.183Z,1019.08
2022-08-08T00:57:38.166Z,1019.09
2022-08-08T00:58:38.138Z,1019.09
2022-08-08T00:59:43.278Z,1019.10
2022-08-08T01:00:38.134Z,1019.13
2022-08-08T01:01:39.264Z,1019.14
2022-08-08T01:04:00.015Z,1019.15
2022-08-08T01:04:09.056Z,1019.16
2022-08-08T01:04:42.002Z,1019.16
2022-08-08T01:05:58.292Z,1019.15
2022-08-08T01:06:38.078Z,1019.16
2022-08-08T01:07:55.997Z,1019.15
2022-08-08T01:08:38.050Z,1019.16
2022-08-08T01:09:41.206Z,1019.15
2022-08-08T01:10:38.010Z,1019.14
2022-08-08T01:11:38.028Z,1019.14
2022-08-08T01:12:38.007Z,1019.15
2022-08-08T01:13:45.764Z,1019.14
2022-08-08T01:14:53.199Z,1019.14
2022-08-08T01:15:47.089Z,1019.15
2022-08-08T01:16:37.960Z,1019.14
2022-08-08T01:17:53.256Z,1019.14
2022-08-08T01:18:53.594Z,1019.14
2022-08-08T01:19:52.109Z,1019.15
2022-08-08T01:20:37.937Z,1019.13
2022-08-08T01:22:07.195Z,1019.11
2022-08-08T01:22:38.177Z,1019.10
2022-08-08T01:24:05.287Z,1019.09
2022-08-08T01:24:37.877Z,1019.09
2022-08-08T01:25:40.570Z,1019.08
2022-08-08T01:26:37.869Z,1019.08
2022-08-08T01:27:43.599Z,1019.06
2022-08-08T01:28:38.358Z,1019.07
2022-08-08T01:29:59.760Z,1019.07
2022-08-08T01:30:37.814Z,1019.07
2022-08-08T01:32:12.785Z,1019.08
2022-08-08T01:32:37.813Z,1019.09
2022-08-08T01:33:53.998Z,1019.09
2022-08-08T01:34:37.765Z,1019.09
2022-08-08T01:35:38.476Z,1019.09
2022-08-08T01:36:37.743Z,1019.08
2022-08-08T01:37:56.901Z,1019.07
2022-08-08T01:38:37.743Z,1019.07
2022-08-08T01:39:42.185Z,1019.05
2022-08-08T01:40:37.704Z,1019.04
2022-08-08T01:41:38.063Z,1019.03
2022-08-08T01:42:38.013Z,1019.04
2022-08-08T01:43:38.427Z,1019.03
2022-08-08T01:44:37.662Z,1019.03
2022-08-08T01:45:37.890Z,1019.03
2022-08-08T01:46:37.650Z,1019.02
2022-08-08T01:48:14.741Z,1019.03
2022-08-08T01:48:37.633Z,1019.04
2022-08-08T01:49:38.707Z,1019.05
2022-08-08T01:50:38.112Z,1019.04
2022-08-08T01:52:27.692Z,1019.05
2022-08-08T01:54:18.552Z,1019.06
2022-08-08T01:55:45.006Z,1019.07
2022-08-08T01:56:37.087Z,1019.08
2022-08-08T01:56:46.957Z,1019.08
2022-08-08T01:58:11.642Z,1019.08
2022-08-08T01:58:47.238Z,1019.07
2022-08-08T02:00:02.827Z,1019.06
2022-08-08T02:00:42.467Z,1019.06
2022-08-08T02:02:00.575Z,1019.06
2022-08-08T02:02:42.664Z,1019.07
2022-08-08T02:03:55.311Z,1019.07
2022-08-08T02:04:43.295Z,1019.08
2022-08-08T02:05:55.768Z,1019.07
2022-08-08T02:06:43.250Z,1019.08
2022-08-08T02:07:49.004Z,1019.07
2022-08-08T02:08:45.536Z,1019.08
2022-08-08T02:10:03.492Z,1019.09
2022-08-08T02:10:45.129Z,1019.09
2022-08-08T02:11:59.794Z,1019.10
2022-08-08T02:12:42.219Z,1019.11
2022-08-08T02:13:54.225Z,1019.13
2022-08-08T02:14:55.826Z,1019.13
2022-08-08T02:15:42.182Z,1019.13
2022-08-08T02:16:42.754Z,1019.13
2022-08-08T02:17:42.911Z,1019.12
2022-08-08T02:18:42.143Z,1019.12
2022-08-08T02:20:07.336Z,1019.12
2022-08-08T02:21:01.359Z,1019.12
2022-08-08T02:21:42.116Z,1019.12
2022-08-08T02:22:52.829Z,1019.13
2022-08-08T02:23:42.104Z,1019.13
2022-08-08T02:24:42.099Z,1019.13
2022-08-08T02:25:47.451Z,1019.14
2022-08-08T02:26:42.079Z,1019.14
2022-08-08T02:27:42.598Z,1019.15
2022-08-08T02:28:42.055Z,1019.15
2022-08-08T02:29:51.678Z,1019.14
2022-08-08T02:30:49.858Z,1019.13
2022-08-08T02:31:58.366Z,1019.13
2022-08-08T02:32:42.056Z,1019.12
2022-08-08T02:34:08.543Z,1019.13
2022-08-08T02:35:06.346Z,1019.13
2022-08-08T02:36:04.598Z,1019.13
2022-08-08T02:36:41.988Z,1019.13
2022-08-08T02:37:51.217Z,1019.12
2022-08-08T02:38:41.971Z,1019.12
2022-08-08T02:40:00.165Z,1019.12
2022-08-08T02:40:42.084Z,1019.11
2022-08-08T02:41:58.796Z,1019.12
2022-08-08T02:42:42.367Z,1019.12
2022-08-08T02:44:38.767Z,1019.10
2022-08-08T02:45:03.555Z,1019.10
2022-08-08T02:45:51.672Z,1019.09
2022-08-08T02:46:41.865Z,1019.09
2022-08-08T02:47:41.831Z,1019.09
2022-08-08T02:48:42.754Z,1019.08
2022-08-08T02:49:50.812Z,1019.09
2022-08-08T02:50:41.849Z,1019.11
2022-08-08T02:51:55.107Z,1019.13
2022-08-08T02:52:41.853Z,1019.14
2022-08-08T02:53:41.789Z,1019.15
2022-08-08T02:54:41.775Z,1019.17
2022-08-08T02:55:41.816Z,1019.18
2022-08-08T02:56:41.768Z,1019.19
2022-08-08T02:57:45.059Z,1019.19
2022-08-08T02:58:41.736Z,1019.18
2022-08-08T02:59:57.631Z,1019.17
2022-08-08T03:00:43.073Z,1019.16
2022-08-08T03:01:49.901Z,1019.16
2022-08-08T03:02:41.724Z,1019.16
2022-08-08T03:05:00.751Z,1019.15
2022-08-08T03:05:11.660Z,1019.16
2022-08-08T03:05:45.408Z,1019.16
2022-08-08T03:06:41.658Z,1019.17
2022-08-08T03:07:58.315Z,1019.18
2022-08-08T03:08:41.662Z,1019.19
2022-08-08T03:09:41.616Z,1019.20
2022-08-08T03:10:44.296Z,1019.21
2022-08-08T03:12:01.598Z,1019.21
2022-08-08T03:13:01.372Z,1019.21
2022-08-08T03:16:00.295Z,1019.20
2022-08-08T03:16:09.490Z,1019.18
2022-08-08T03:16:34.432Z,1019.16
2022-08-08T03:17:20.048Z,1019.17
2022-08-08T03:18:14.525Z,1019.17
2022-08-08T03:19:17.839Z,1019.16
2022-08-08T03:20:14.457Z,1019.16
2022-08-08T03:21:15.597Z,1019.17
2022-08-08T03:22:38.286Z,1019.16
2022-08-08T03:23:17.589Z,1019.16
2022-08-08T03:24:15.624Z,1019.16
2022-08-08T03:25:18.962Z,1019.17
2022-08-08T03:26:14.409Z,1019.18
2022-08-08T03:27:14.364Z,1019.18
2022-08-08T03:28:14.372Z,1019.19
2022-08-08T03:29:18.563Z,1019.19
2022-08-08T03:30:19.029Z,1019.20
2022-08-08T03:31:25.297Z,1019.21
2022-08-08T03:32:14.370Z,1019.22
2022-08-08T03:33:55.934Z,1019.23
2022-08-08T03:34:14.397Z,1019.25
2022-08-08T03:35:14.276Z,1019.27
2022-08-08T03:36:15.971Z,1019.28
2022-08-08T03:37:19.998Z,1019.30
2022-08-08T03:38:56.608Z,1019.31
2022-08-08T03:39:16.000Z,1019.32
2022-08-08T03:40:30.480Z,1019.33
2022-08-08T03:42:11.581Z,1019.34
2022-08-08T03:42:31.078Z,1019.35
2022-08-08T03:43:16.485Z,1019.36
2022-08-08T03:44:14.217Z,1019.36
2022-08-08T03:46:07.275Z,1019.37
2022-08-08T03:46:14.180Z,1019.36
2022-08-08T03:47:20.349Z,1019.35
2022-08-08T03:48:21.229Z,1019.35
2022-08-08T03:49:57.582Z,1019.34
2022-08-08T03:50:14.132Z,1019.34
2022-08-08T03:51:14.331Z,1019.35
2022-08-08T03:52:14.251Z,1019.35
2022-08-08T03:53:14.117Z,1019.35
2022-08-08T03:54:15.463Z,1019.36
2022-08-08T03:55:54.942Z,1019.36
2022-08-08T03:56:31.764Z,1019.37
2022-08-08T03:58:33.739Z,1019.37
2022-08-08T03:58:47.748Z,1019.37
2022-08-08T03:59:22.797Z,1019.37
2022-08-08T04:00:18.601Z,1019.36
2022-08-08T04:01:22.991Z,1019.35
2022-08-08T04:02:33.109Z,1019.35
2022-08-08T04:03:14.041Z,1019.35
2022-08-08T04:04:14.079Z,1019.35
2022-08-08T04:05:13.986Z,1019.36
2022-08-08T04:06:13.990Z,1019.35
2022-08-08T04:07:16.434Z,1019.35
2022-08-08T04:08:13.951Z,1019.36
2022-08-08T04:09:13.935Z,1019.37
2022-08-08T04:10:13.934Z,1019.38
2022-08-08T04:11:17.351Z,1019.39
2022-08-08T04:12:15.674Z,1019.40
2022-08-08T04:13:18.132Z,1019.42
2022-08-08T04:14:35.442Z,1019.41
2022-08-08T04:15:13.883Z,1019.41
2022-08-08T04:16:13.886Z,1019.42
2022-08-08T04:17:15.512Z,1019.40
2022-08-08T04:18:17.096Z,1019.39
2022-08-08T04:19:23.882Z,1019.38
2022-08-08T04:20:13.852Z,1019.39
2022-08-08T04:21:13.830Z,1019.41
2022-08-08T04:22:13.813Z,1019.42
2022-08-08T04:23:15.429Z,1019.44
2022-08-08T04:24:22.419Z,1019.45
2022-08-08T04:25:15.532Z,1019.46
2022-08-08T04:26:13.786Z,1019.46
2022-08-08T04:27:42.716Z,1019.47
2022-08-08T04:28:36.271Z,1019.46
2022-08-08T04:29:15.093Z,1019.47
2022-08-08T04:30:17.426Z,1019.47
2022-08-08T04:31:57.382Z,1019.48
2022-08-08T04:32:13.708Z,1019.48
2022-08-08T04:33:15.694Z,1019.49
2022-08-08T04:34:13.689Z,1019.51
2022-08-08T04:35:13.683Z,1019.51
2022-08-08T04:36:13.684Z,1019.51
2022-08-08T04:37:13.642Z,1019.51
2022-08-08T04:38:20.984Z,1019.52
2022-08-08T04:40:03.197Z,1019.53
2022-08-08T04:40:13.688Z,1019.54
2022-08-08T04:41:17.909Z,1019.55
2022-08-08T04:42:15.772Z,1019.55
2022-08-08T04:43:13.581Z,1019.55
2022-08-08T04:44:13.592Z,1019.56
2022-08-08T04:45:13.562Z,1019.56
2022-08-08T04:46:14.656Z,1019.56
2022-08-08T04:47:13.577Z,1019.56
2022-08-08T04:48:15.064Z,1019.57
2022-08-08T04:49:13.518Z,1019.57
2022-08-08T04:50:14.475Z,1019.57
2022-08-08T04:51:17.440Z,1019.58
2022-08-08T04:52:13.515Z,1019.58
2022-08-08T04:53:52.172Z,1019.58
2022-08-08T04:54:42.437Z,1019.59
2022-08-08T04:55:13.456Z,1019.60
2022-08-08T04:56:13.467Z,1019.62
2022-08-08T04:57:13.434Z,1019.63
2022-08-08T04:58:13.431Z,1019.64
2022-08-08T04:59:13.419Z,1019.66
2022-08-08T05:00:13.424Z,1019.66
2022-08-08T05:01:13.517Z,1019.67
2022-08-08T05:02:14.563Z,1019.68
2022-08-08T05:03:13.384Z,1019.69
2022-08-08T05:04:13.410Z,1019.70
2022-08-08T05:05:20.472Z,1019.71
2022-08-08T05:06:18.181Z,1019.72
2022-08-08T05:07:14.910Z,1019.73
2022-08-08T05:08:13.336Z,1019.73
2022-08-08T05:09:13.310Z,1019.74
2022-08-08T05:10:13.332Z,1019.74
2022-08-08T05:11:17.235Z,1019.75
2022-08-08T05:12:20.903Z,1019.75
2022-08-08T05:13:17.801Z,1019.76
2022-08-08T05:14:14.766Z,1019.77
2022-08-08T05:15:13.665Z,1019.76
2022-08-08T05:16:51.536Z,1019.77
2022-08-08T05:17:13.258Z,1019.78
2022-08-08T05:18:13.223Z,1019.78
2022-08-08T05:20:12.226Z,1019.79
2022-08-08T05:20:19.069Z,1019.81
2022-08-08T05:21:14.387Z,1019.82
2022-08-08T05:22:13.195Z,1019.84
2022-08-08T05:23:13.182Z,1019.86
2022-08-08T05:24:13.170Z,1019.87
2022-08-08T05:25:13.147Z,1019.88
2022-08-08T05:26:14.239Z,1019.88
2022-08-08T05:27:13.161Z,1019.88
2022-08-08T05:28:13.126Z,1019.87
2022-08-08T05:29:13.098Z,1019.86
2022-08-08T05:30:13.122Z,1019.85
2022-08-08T05:31:19.449Z,1019.83
2022-08-08T05:32:13.144Z,1019.82
2022-08-08T05:33:13.074Z,1019.81
2022-08-08T05:34:13.083Z,1019.81
2022-08-08T05:35:13.692Z,1019.82
2022-08-08T05:36:25.218Z,1019.83
2022-08-08T05:37:18.902Z,1019.83
2022-08-08T05:38:30.739Z,1019.84
2022-08-08T05:39:13.122Z,1019.85
2022-08-08T05:40:14.557Z,1019.86
2022-08-08T05:41:12.977Z,1019.88
2022-08-08T05:42:12.990Z,1019.90
2022-08-08T05:43:39.124Z,1019.89
2022-08-08T05:44:12.974Z,1019.89
2022-08-08T05:45:25.322Z,1019.88
2022-08-08T05:46:12.950Z,1019.88
2022-08-08T05:47:14.318Z,1019.87
2022-08-08T05:48:14.809Z,1019.86
2022-08-08T05:49:12.898Z,1019.85
2022-08-08T05:50:12.892Z,1019.84
2022-08-08T05:51:15.818Z,1019.84
2022-08-08T05:52:12.873Z,1019.85
2022-08-08T05:53:54.441Z,1019.85
2022-08-08T05:54:50.753Z,1019.86
2022-08-08T05:55:14.238Z,1019.86
2022-08-08T05:56:14.740Z,1019.85
2022-08-08T05:57:12.821Z,1019.86
2022-08-08T05:58:17.965Z,1019.84
2022-08-08T05:59:13.946Z,1019.85
2022-08-08T06:00:24.970Z,1019.84
2022-08-08T06:01:12.788Z,1019.84
2022-08-08T06:02:12.778Z,1019.84
2022-08-08T06:03:17.267Z,1019.82
2022-08-08T06:04:13.716Z,1019.82
2022-08-08T06:05:34.145Z,1019.82
2022-08-08T06:06:12.746Z,1019.82
2022-08-08T06:07:12.712Z,1019.82
2022-08-08T06:08:28.599Z,1019.82
2022-08-08T06:10:00.267Z,1019.83
2022-08-08T06:10:12.720Z,1019.83
2022-08-08T06:11:13.350Z,1019.84
2022-08-08T06:12:14.442Z,1019.85
2022-08-08T06:13:12.700Z,1019.86
2022-08-08T06:14:13.101Z,1019.87
2022-08-08T06:15:16.304Z,1019.88
2022-08-08T06:16:12.623Z,1019.89
2022-08-08T06:17:12.620Z,1019.91
2022-08-08T06:18:21.276Z,1019.93
2022-08-08T06:19:16.351Z,1019.95
2022-08-08T06:20:12.594Z,1019.97
2022-08-08T06:21:32.413Z,1019.98
2022-08-08T06:23:12.544Z,1020.00
2022-08-08T06:24:13.523Z,1020.01
2022-08-08T06:25:12.538Z,1020.02
2022-08-08T06:26:38.438Z,1020.04
2022-08-08T06:27:12.512Z,1020.07
2022-08-08T06:28:12.528Z,1020.09
2022-08-08T06:29:26.713Z,1020.12
2022-08-08T06:30:19.804Z,1020.14
2022-08-08T06:31:15.588Z,1020.16
2022-08-08T06:32:14.940Z,1020.17
2022-08-08T06:33:13.131Z,1020.18
2022-08-08T06:34:27.359Z,1020.20
2022-08-08T06:36:07.094Z,1020.20
2022-08-08T06:36:14.073Z,1020.21
2022-08-08T06:37:37.044Z,1020.21
2022-08-08T06:38:14.453Z,1020.20
2022-08-08T06:39:12.411Z,1020.20
2022-08-08T06:40:14.317Z,1020.21
2022-08-08T06:41:13.207Z,1020.21
2022-08-08T06:42:12.356Z,1020.20
2022-08-08T06:43:12.335Z,1020.21
2022-08-08T06:44:12.329Z,1020.21
2022-08-08T06:45:12.352Z,1020.23
2022-08-08T06:46:12.748Z,1020.23
2022-08-08T06:47:12.296Z,1020.24
2022-08-08T06:48:12.300Z,1020.25
2022-08-08T06:49:12.280Z,1020.24
2022-08-08T06:50:12.905Z,1020.25
2022-08-08T06:51:12.263Z,1020.26
2022-08-08T06:52:12.272Z,1020.27
2022-08-08T06:53:17.311Z,1020.29
2022-08-08T06:54:12.230Z,1020.31
2022-08-08T06:55:12.219Z,1020.31
2022-08-08T06:56:12.228Z,1020.31
2022-08-08T06:57:12.189Z,1020.32
2022-08-08T06:58:12.194Z,1020.31
2022-08-08T06:59:12.608Z,1020.31
2022-08-08T07:00:13.047Z,1020.30
2022-08-08T07:02:16.476Z,1020.29
2022-08-08T07:02:32.214Z,1020.28
2022-08-08T07:03:51.566Z,1020.27
2022-08-08T07:04:37.384Z,1020.28
2022-08-08T07:05:20.728Z,1020.30
2022-08-08T07:06:12.118Z,1020.30
2022-08-08T07:07:12.549Z,1020.31
2022-08-08T07:08:12.111Z,1020.32
2022-08-08T07:09:15.256Z,1020.33
2022-08-08T07:10:12.577Z,1020.34
2022-08-08T07:11:22.480Z,1020.35
2022-08-08T07:12:12.490Z,1020.35
2022-08-08T07:13:12.036Z,1020.35
2022-08-08T07:14:12.030Z,1020.36
2022-08-08T07:15:32.279Z,1020.36
2022-08-08T07:16:12.335Z,1020.37
2022-08-08T07:17:14.539Z,1020.37
2022-08-08T07:18:35.853Z,1020.38
2022-08-08T07:19:12.010Z,1020.38
2022-08-08T07:20:11.975Z,1020.38
2022-08-08T07:21:18.842Z,1020.38
2022-08-08T07:22:19.314Z,1020.39
2022-08-08T07:23:11.951Z,1020.40
2022-08-08T07:24:12.705Z,1020.41
2022-08-08T07:25:14.622Z,1020.43
2022-08-08T07:26:12.008Z,1020.44
2022-08-08T07:27:11.904Z,1020.45
2022-08-08T07:28:13.635Z,1020.44
2022-08-08T07:30:00.402Z,1020.44
2022-08-08T07:30:13.893Z,1020.46
2022-08-08T07:31:11.888Z,1020.45
2022-08-08T07:32:15.648Z,1020.46
2022-08-08T07:33:11.843Z,1020.46
2022-08-08T07:34:26.629Z,1020.47
2022-08-08T07:35:11.827Z,1020.46
2022-08-08T07:36:11.787Z,1020.46
2022-08-08T07:37:13.394Z,1020.48
2022-08-08T07:38:20.643Z,1020.47
2022-08-08T07:39:13.378Z,1020.46
2022-08-08T07:40:11.802Z,1020.47
2022-08-08T07:41:23.665Z,1020.48
2022-08-08T07:42:12.496Z,1020.48
2022-08-08T07:43:11.722Z,1020.47
2022-08-08T07:44:37.173Z,1020.46
2022-08-08T07:45:11.736Z,1020.46
2022-08-08T07:46:24.125Z,1020.46
2022-08-08T07:47:11.690Z,1020.46
2022-08-08T07:48:11.663Z,1020.46
2022-08-08T07:49:11.691Z,1020.47
2022-08-08T07:50:11.666Z,1020.47
2022-08-08T07:51:24.309Z,1020.48
2022-08-08T07:52:13.399Z,1020.49
2022-08-08T07:53:11.642Z,1020.50
2022-08-08T07:54:11.651Z,1020.51
2022-08-08T07:55:11.647Z,1020.51
2022-08-08T07:56:11.587Z,1020.53
2022-08-08T07:57:11.587Z,1020.55
2022-08-08T07:58:12.837Z,1020.55
2022-08-08T07:59:11.561Z,1020.55
2022-08-08T08:00:13.216Z,1020.56
2022-08-08T08:01:11.624Z,1020.56
2022-08-08T08:02:36.389Z,1020.57
2022-08-08T08:03:20.536Z,1020.57
2022-08-08T08:04:13.694Z,1020.55
2022-08-08T08:05:14.379Z,1020.57
2022-08-08T08:06:11.492Z,1020.58
2022-08-08T08:07:11.895Z,1020.58
2022-08-08T08:08:11.470Z,1020.59
2022-08-08T08:09:11.462Z,1020.60
2022-08-08T08:10:12.332Z,1020.61
2022-08-08T08:11:11.509Z,1020.62
2022-08-08T08:12:11.442Z,1020.62
2022-08-08T08:13:17.905Z,1020.63
2022-08-08T08:14:11.424Z,1020.65
2022-08-08T08:15:11.411Z,1020.66
2022-08-08T08:16:11.399Z,1020.64
2022-08-08T08:17:11.401Z,1020.64
2022-08-08T08:18:14.434Z,1020.64
2022-08-08T08:19:12.818Z,1020.61
2022-08-08T08:20:11.403Z,1020.65
2022-08-08T08:21:14.623Z,1020.66
2022-08-08T08:22:11.330Z,1020.67
2022-08-08T08:23:11.370Z,1020.68
2022-08-08T08:24:11.378Z,1020.69
2022-08-08T08:25:11.300Z,1020.69
2022-08-08T08:26:11.287Z,1020.68
2022-08-08T08:27:11.295Z,1020.67
2022-08-08T08:28:11.265Z,1020.67
2022-08-08T08:29:13.770Z,1020.67
2022-08-08T08:30:11.346Z,1020.66
2022-08-08T08:31:11.235Z,1020.66
2022-08-08T08:32:11.285Z,1020.65
2022-08-08T08:33:11.757Z,1020.65
2022-08-08T08:34:11.215Z,1020.66
2022-08-08T08:35:11.193Z,1020.65
2022-08-08T08:36:19.628Z,1020.65
2022-08-08T08:37:11.189Z,1020.64
2022-08-08T08:38:17.582Z,1020.64
2022-08-08T08:39:17.363Z,1020.65
2022-08-08T08:40:13.109Z,1020.65
2022-08-08T08:41:16.865Z,1020.66
2022-08-08T08:42:11.126Z,1020.66
2022-08-08T08:43:15.308Z,1020.66
2022-08-08T08:44:14.305Z,1020.68
2022-08-08T08:45:23.086Z,1020.68
2022-08-08T08:46:11.086Z,1020.66
2022-08-08T08:47:11.094Z,1020.66
2022-08-08T08:48:11.054Z,1020.66
2022-08-08T08:49:11.075Z,1020.65
2022-08-08T08:50:17.340Z,1020.64
2022-08-08T08:51:11.039Z,1020.65
2022-08-08T08:52:11.009Z,1020.67
2022-08-08T08:53:28.220Z,1020.69
2022-08-08T08:54:11.078Z,1020.70
2022-08-08T08:55:10.992Z,1020.71
2022-08-08T08:56:10.992Z,1020.71
2022-08-08T08:57:15.992Z,1020.71
2022-08-08T08:58:10.962Z,1020.70
2022-08-08T08:59:15.131Z,1020.71
2022-08-08T09:00:15.569Z,1020.73
2022-08-08T09:01:13.482Z,1020.74
2022-08-08T09:02:10.983Z,1020.72
2022-08-08T09:03:10.910Z,1020.72
2022-08-08T09:04:31.745Z,1020.71
2022-08-08T09:05:29.056Z,1020.71
2022-08-08T09:06:26.397Z,1020.69
2022-08-08T09:07:12.981Z,1020.68
2022-08-08T09:08:18.257Z,1020.69
2022-08-08T09:09:19.147Z,1020.68
2022-08-08T09:10:16.998Z,1020.70
2022-08-08T09:11:10.849Z,1020.71
2022-08-08T09:12:10.833Z,1020.73
2022-08-08T09:13:10.803Z,1020.74
2022-08-08T09:14:10.791Z,1020.74
2022-08-08T09:15:10.808Z,1020.71
2022-08-08T09:16:10.783Z,1020.72
2022-08-08T09:17:17.368Z,1020.72
2022-08-08T09:18:11.105Z,1020.72
2022-08-08T09:19:10.765Z,1020.72
2022-08-08T09:22:00.135Z,1020.71
2022-08-08T09:22:09.617Z,1020.73
2022-08-08T09:22:25.892Z,1020.74
2022-08-08T09:23:17.733Z,1020.73
2022-08-08T09:24:15.247Z,1020.74
2022-08-08T09:25:15.375Z,1020.72
2022-08-08T09:26:15.171Z,1020.70
2022-08-08T09:27:20.998Z,1020.70
2022-08-08T09:28:35.719Z,1020.70
2022-08-08T09:29:22.649Z,1020.70
2022-08-08T09:30:17.190Z,1020.74
2022-08-08T09:31:15.141Z,1020.71
2022-08-08T09:32:15.113Z,1020.68
2022-08-08T09:34:14.711Z,1020.66
2022-08-08T09:34:37.796Z,1020.66
2022-08-08T09:35:15.936Z,1020.66
2022-08-08T09:36:15.099Z,1020.65
2022-08-08T09:37:46.371Z,1020.62
2022-08-08T09:38:18.004Z,1020.63
2022-08-08T09:39:18.957Z,1020.64
2022-08-08T09:40:15.128Z,1020.64
2022-08-08T09:41:15.033Z,1020.66
2022-08-08T09:42:21.128Z,1020.64
2022-08-08T09:43:16.697Z,1020.62
2022-08-08T09:44:19.109Z,1020.62
2022-08-08T09:45:20.505Z,1020.62
2022-08-08T09:46:16.923Z,1020.63
2022-08-08T09:47:26.512Z,1020.61
2022-08-08T09:48:21.106Z,1020.59
2022-08-08T09:49:41.324Z,1020.59
2022-08-08T09:50:14.975Z,1020.59
2022-08-08T09:51:14.942Z,1020.61
2022-08-08T09:52:46.732Z,1020.63
2022-08-08T09:53:24.882Z,1020.61
2022-08-08T09:54:19.852Z,1020.61
2022-08-08T09:55:17.388Z,1020.62
2022-08-08T09:56:25.053Z,1020.64
2022-08-08T09:57:17.338Z,1020.66
2022-08-08T09:58:19.823Z,1020.66
2022-08-08T09:59:40.323Z,1020.70
2022-08-08T10:00:36.007Z,1020.70
2022-08-08T10:02:00.113Z,1020.72
2022-08-08T10:02:14.906Z,1020.71
2022-08-08T10:03:14.837Z,1020.70
2022-08-08T10:04:14.831Z,1020.70
2022-08-08T10:05:15.642Z,1020.66
2022-08-08T10:06:14.820Z,1020.67
2022-08-08T10:07:15.956Z,1020.69
2022-08-08T10:08:14.735Z,1020.68
2022-08-08T10:09:14.747Z,1020.69
2022-08-08T10:10:14.744Z,1020.67
2022-08-08T10:12:27.399Z,1020.67
2022-08-08T10:12:54.147Z,1020.67
2022-08-08T10:13:15.124Z,1020.67
2022-08-08T10:14:28.617Z,1020.68
2022-08-08T10:15:18.282Z,1020.67
2022-08-08T10:16:14.692Z,1020.62
2022-08-08T10:18:03.983Z,1020.67
2022-08-08T10:18:22.247Z,1020.63
2022-08-08T10:19:14.644Z,1020.65
2022-08-08T10:20:17.063Z,1020.63
2022-08-08T10:21:25.679Z,1020.59
2022-08-08T10:22:14.606Z,1020.58
2022-08-08T10:23:14.633Z,1020.57
2022-08-08T10:24:29.143Z,1020.55
2022-08-08T10:25:15.678Z,1020.55
2022-08-08T10:26:30.120Z,1020.56
2022-08-08T10:27:14.574Z,1020.54
2022-08-08T10:28:15.003Z,1020.53
2022-08-08T10:29:23.040Z,1020.53
2022-08-08T10:30:16.400Z,1020.54
2022-08-08T10:31:14.545Z,1020.53
2022-08-08T10:32:14.525Z,1020.53
2022-08-08T10:33:14.495Z,1020.52
2022-08-08T10:34:19.990Z,1020.50
2022-08-08T10:36:07.679Z,1020.51
2022-08-08T10:36:24.367Z,1020.51
2022-08-08T10:37:14.461Z,1020.53
2022-08-08T10:38:14.454Z,1020.55
2022-08-08T10:39:14.510Z,1020.56
2022-08-08T10:40:16.119Z,1020.57
2022-08-08T10:41:14.475Z,1020.57
2022-08-08T10:42:16.842Z,1020.59
2022-08-08T10:43:14.645Z,1020.60
2022-08-08T10:44:15.181Z,1020.56
2022-08-08T10:45:15.956Z,1020.53
2022-08-08T10:46:29.350Z,1020.53
2022-08-08T10:47:14.378Z,1020.54
2022-08-08T10:48:14.339Z,1020.54
2022-08-08T10:49:26.808Z,1020.54
2022-08-08T10:50:15.439Z,1020.57
2022-08-08T10:51:14.316Z,1020.56
2022-08-08T10:52:14.311Z,1020.57
2022-08-08T10:53:14.304Z,1020.56
2022-08-08T10:54:14.325Z,1020.56
2022-08-08T10:55:15.605Z,1020.59
2022-08-08T10:56:27.699Z,1020.55
2022-08-08T10:57:14.278Z,1020.54
2022-08-08T10:58:15.551Z,1020.54
2022-08-08T10:59:14.965Z,1020.54
2022-08-08T11:00:14.215Z,1020.55
2022-08-08T11:01:15.629Z,1020.54
2022-08-08T11:02:14.282Z,1020.54
2022-08-08T11:03:15.510Z,1020.53
2022-08-08T11:04:14.276Z,1020.56
2022-08-08T11:05:15.056Z,1020.52
2022-08-08T11:06:14.242Z,1020.52
2022-08-08T11:08:31.793Z,1020.55
2022-08-08T11:08:53.031Z,1020.53
2022-08-08T11:09:19.567Z,1020.50
2022-08-08T11:10:14.139Z,1020.48
2022-08-08T11:11:32.109Z,1020.48
2022-08-08T11:12:14.376Z,1020.47
2022-08-08T11:13:29.941Z,1020.47
2022-08-08T11:14:16.228Z,1020.46
2022-08-08T11:15:14.090Z,1020.46
2022-08-08T11:16:33.154Z,1020.43
2022-08-08T11:17:15.577Z,1020.46
2022-08-08T11:18:14.034Z,1020.47
2022-08-08T11:19:15.499Z,1020.47
2022-08-08T11:20:14.154Z,1020.48
2022-08-08T11:21:19.630Z,1020.46
2022-08-08T11:22:13.990Z,1020.45
2022-08-08T11:23:14.056Z,1020.44
2022-08-08T11:24:13.983Z,1020.44
2022-08-08T11:25:16.224Z,1020.45
2022-08-08T11:26:19.218Z,1020.44
2022-08-08T11:27:20.234Z,1020.43
2022-08-08T11:28:13.951Z,1020.40
2022-08-08T11:29:13.950Z,1020.38
2022-08-08T11:30:20.287Z,1020.37
2022-08-08T11:31:13.940Z,1020.36
2022-08-08T11:32:13.905Z,1020.36
2022-08-08T11:33:13.894Z,1020.37
2022-08-08T11:34:23.291Z,1020.40
2022-08-08T11:35:25.975Z,1020.40
2022-08-08T11:36:13.885Z,1020.42
2022-08-08T11:37:15.017Z,1020.44
2022-08-08T11:38:35.293Z,1020.41
2022-08-08T11:39:13.919Z,1020.40
2022-08-08T11:40:13.971Z,1020.40
2022-08-08T11:41:13.830Z,1020.35
2022-08-08T11:42:13.799Z,1020.33
2022-08-08T11:43:13.784Z,1020.38
2022-08-08T11:44:13.786Z,1020.36
2022-08-08T11:45:13.755Z,1020.37
2022-08-08T11:46:18.081Z,1020.38
2022-08-08T11:47:17.025Z,1020.37
2022-08-08T11:48:20.381Z,1020.37
2022-08-08T11:49:14.758Z,1020.36
2022-08-08T11:50:13.711Z,1020.35
2022-08-08T11:51:34.931Z,1020.35
2022-08-08T11:52:18.378Z,1020.33
2022-08-08T11:53:13.894Z,1020.32
2022-08-08T11:54:31.375Z,1020.30
2022-08-08T11:55:13.669Z,1020.29
2022-08-08T11:56:13.659Z,1020.30
2022-08-08T11:57:14.498Z,1020.30
2022-08-08T11:58:14.821Z,1020.31
2022-08-08T11:59:13.626Z,1020.31
2022-08-08T12:00:13.624Z,1020.32
2022-08-08T12:01:16.424Z,1020.30
2022-08-08T12:02:30.923Z,1020.30
2022-08-08T12:03:13.705Z,1020.29
2022-08-08T12:04:13.602Z,1020.33
2022-08-08T12:05:13.949Z,1020.33
2022-08-08T12:06:13.568Z,1020.31
2022-08-08T12:07:16.611Z,1020.31